createdAt,value
2018-07-12T00:04:05.840Z,12.60
2018-07-12T00:08:49.785Z,12.60
2018-07-12T00:13:32.688Z,12.50
2018-07-12T00:18:15.602Z,12.60
2018-07-12T00:22:58.530Z,12.60
2018-07-12T00:27:41.378Z,12.50
2018-07-12T00:32:24.505Z,12.50
2018-07-12T00:37:07.476Z,12.40
2018-07-12T00:41:50.429Z,12.40
2018-07-12T00:46:33.347Z,12.40
2018-07-12T00:51:16.315Z,12.40
2018-07-12T00:55:59.238Z,12.50
2018-07-12T01:00:42.149Z,12.40
2018-07-12T01:05:25.137Z,12.30
2018-07-12T01:10:08.118Z,12.30
2018-07-12T01:14:51.006Z,12.30
2018-07-12T01:19:33.879Z,12.30
2018-07-12T01:24:16.860Z,12.20
2018-07-12T01:28:59.857Z,12.20
2018-07-12T01:33:42.742Z,12.20
2018-07-12T01:38:25.778Z,12.20
2018-07-12T01:43:08.839Z,12.20
2018-07-12T01:47:51.823Z,12.10
2018-07-12T01:52:34.782Z,12.10
2018-07-12T01:57:17.726Z,12.10
2018-07-12T02:02:00.632Z,12.10
2018-07-12T02:06:43.531Z,12.10
2018-07-12T02:11:26.490Z,12.10
2018-07-12T02:16:09.415Z,12.10
2018-07-12T02:20:52.342Z,12.20
2018-07-12T02:25:35.233Z,12.10
2018-07-12T02:30:18.107Z,12.00
2018-07-12T02:35:01.054Z,12.10
2018-07-12T02:39:43.970Z,12.00
2018-07-12T02:44:26.915Z,12.00
2018-07-12T02:49:09.803Z,12.10
2018-07-12T02:53:52.730Z,12.10
2018-07-12T02:58:35.589Z,12.00
2018-07-12T03:03:18.450Z,11.90
2018-07-12T03:08:01.368Z,12.10
2018-07-12T03:12:44.368Z,12.20
2018-07-12T03:17:27.288Z,12.20
2018-07-12T03:22:10.150Z,12.30
2018-07-12T03:26:53.255Z,12.30
2018-07-12T03:31:36.179Z,12.30
2018-07-12T03:36:19.066Z,12.30
2018-07-12T03:41:01.971Z,12.40
2018-07-12T03:45:44.941Z,12.40
2018-07-12T03:50:27.936Z,12.40
2018-07-12T03:55:10.861Z,12.50
2018-07-12T03:59:53.706Z,12.60
2018-07-12T04:04:36.748Z,12.60
2018-07-12T04:09:19.777Z,12.60
2018-07-12T04:14:02.661Z,12.60
2018-07-12T04:18:45.570Z,12.70
2018-07-12T04:23:28.501Z,12.90
2018-07-12T04:28:11.482Z,13.10
2018-07-12T04:32:54.373Z,13.30
2018-07-12T04:37:37.290Z,13.50
2018-07-12T04:42:20.162Z,13.60
2018-07-12T04:47:03.156Z,13.70
2018-07-12T04:51:46.017Z,13.90
2018-07-12T04:56:28.897Z,13.80
2018-07-12T05:01:11.828Z,13.80
2018-07-12T05:10:37.851Z,14.10
2018-07-12T05:15:20.770Z,14.20
2018-07-12T05:20:03.678Z,14.20
2018-07-12T05:24:46.600Z,14.30
2018-07-12T05:29:29.581Z,14.40
2018-07-12T05:34:12.532Z,14.40
2018-07-12T05:38:56.657Z,14.40
2018-07-12T05:43:40.872Z,14.30
2018-07-12T05:48:25.007Z,14.40
2018-07-12T05:53:09.341Z,14.30
2018-07-12T05:57:53.698Z,14.30
2018-07-12T06:02:38.850Z,14.40
2018-07-12T06:07:28.307Z,14.30
2018-07-12T06:12:12.715Z,14.60
2018-07-12T06:16:57.114Z,14.70
2018-07-12T06:21:41.496Z,14.60
2018-07-12T06:26:25.904Z,14.60
2018-07-12T06:31:10.263Z,14.50
2018-07-12T06:35:54.598Z,14.50
2018-07-12T06:40:39.007Z,14.50
2018-07-12T06:45:23.467Z,14.30
2018-07-12T06:50:07.926Z,14.20
2018-07-12T06:54:52.388Z,14.20
2018-07-12T06:59:36.960Z,14.10
2018-07-12T07:04:21.364Z,14.20
2018-07-12T07:09:07.718Z,14.20
2018-07-12T07:13:52.578Z,14.10
2018-07-12T07:18:37.299Z,14.00
2018-07-12T07:23:21.755Z,14.10
2018-07-12T07:28:06.505Z,14.10
2018-07-12T07:32:50.920Z,14.10
2018-07-12T07:37:35.311Z,14.10
2018-07-12T07:42:19.843Z,14.00
2018-07-12T07:47:04.236Z,14.10
2018-07-12T07:51:48.992Z,14.20
2018-07-12T07:56:33.434Z,14.30
2018-07-12T08:01:17.911Z,14.20
2018-07-12T08:06:02.479Z,14.20
2018-07-12T08:10:46.950Z,14.20
2018-07-12T08:15:31.438Z,14.20
2018-07-12T08:20:16.008Z,14.10
2018-07-12T08:25:00.394Z,14.00
2018-07-12T08:29:45.787Z,14.10
2018-07-12T08:34:30.412Z,14.20
2018-07-12T08:39:14.954Z,14.20
2018-07-12T08:43:59.542Z,14.30
2018-07-12T08:48:43.992Z,14.40
2018-07-12T08:53:28.419Z,14.50
2018-07-12T08:58:12.885Z,14.60
2018-07-12T09:02:57.427Z,14.70
2018-07-12T09:07:41.924Z,14.70
2018-07-12T09:12:26.705Z,14.50
2018-07-12T09:17:11.278Z,14.70
2018-07-12T09:21:55.868Z,14.70
2018-07-12T09:26:40.390Z,14.90
2018-07-12T09:31:24.937Z,14.90
2018-07-12T09:36:09.273Z,14.90
2018-07-12T09:40:53.971Z,14.70
2018-07-12T09:45:38.338Z,14.60
2018-07-12T09:50:22.771Z,14.50
2018-07-12T09:55:07.309Z,14.40
2018-07-12T09:59:51.851Z,14.20
2018-07-12T10:04:36.398Z,14.00
2018-07-12T10:09:26.183Z,13.90
2018-07-12T10:14:15.765Z,14.00
2018-07-12T10:19:00.302Z,14.00
2018-07-12T10:23:44.903Z,14.00
2018-07-12T10:28:29.014Z,14.00
2018-07-12T10:33:13.719Z,14.00
2018-07-12T10:37:58.370Z,13.90
2018-07-12T10:42:42.942Z,13.90
2018-07-12T10:47:27.370Z,13.90
2018-07-12T10:52:11.847Z,14.00
2018-07-12T10:56:56.282Z,14.00
2018-07-12T11:01:40.659Z,14.10
2018-07-12T11:06:25.286Z,14.30
2018-07-12T11:11:09.622Z,14.40
2018-07-12T11:15:54.149Z,14.50
2018-07-12T11:20:38.518Z,14.50
2018-07-12T11:25:22.986Z,14.60
2018-07-12T11:30:07.689Z,14.70
2018-07-12T11:34:52.375Z,14.80
2018-07-12T11:39:36.774Z,15.00
2018-07-12T11:44:21.517Z,15.00
2018-07-12T11:49:06.082Z,15.00
2018-07-12T11:53:50.487Z,15.00
2018-07-12T11:58:34.931Z,15.20
2018-07-12T12:03:19.371Z,15.20
2018-07-12T12:08:03.694Z,15.40
2018-07-12T12:12:48.132Z,15.30
2018-07-12T12:17:32.506Z,15.40
2018-07-12T12:22:16.934Z,15.60
2018-07-12T12:27:01.307Z,16.00
2018-07-12T12:31:45.704Z,16.20
2018-07-12T12:36:30.110Z,16.40
2018-07-12T12:41:14.583Z,16.60
2018-07-12T12:45:59.067Z,16.60
2018-07-12T12:50:43.510Z,16.60
2018-07-12T12:55:28.720Z,16.50
2018-07-12T13:00:13.206Z,16.40
2018-07-12T13:04:57.707Z,16.30
2018-07-12T13:09:43.066Z,16.20
2018-07-12T13:14:27.579Z,16.40
2018-07-12T13:19:11.958Z,16.70
2018-07-12T13:23:56.324Z,16.40
2018-07-12T13:28:40.676Z,16.20
2018-07-12T13:33:25.029Z,15.90
2018-07-12T13:38:09.406Z,15.90
2018-07-12T13:42:53.955Z,16.00
2018-07-12T13:47:38.272Z,16.30
2018-07-12T13:52:22.951Z,16.40
2018-07-12T13:57:07.455Z,16.60
2018-07-12T14:01:51.867Z,16.70
2018-07-12T14:06:36.291Z,17.00
2018-07-12T14:11:20.663Z,17.00
2018-07-12T14:16:05.112Z,17.20
2018-07-12T14:20:49.629Z,17.30
2018-07-12T14:25:34.053Z,17.40
2018-07-12T14:30:18.489Z,17.80
2018-07-12T14:35:03.085Z,18.40
2018-07-12T14:39:47.527Z,18.70
2018-07-12T14:44:32.273Z,18.90
2018-07-12T14:49:16.691Z,18.90
2018-07-12T14:54:01.209Z,18.90
2018-07-12T14:58:45.728Z,18.70
2018-07-12T15:03:30.194Z,18.80
2018-07-12T15:08:14.605Z,18.70
2018-07-12T15:12:58.984Z,18.50
2018-07-12T15:17:43.414Z,18.80
2018-07-12T15:22:27.949Z,18.80
2018-07-12T15:27:12.361Z,19.10
2018-07-12T15:31:56.946Z,19.70
2018-07-12T15:36:41.400Z,19.60
2018-07-12T15:41:25.925Z,19.40
2018-07-12T15:46:10.337Z,19.20
2018-07-12T15:50:54.992Z,19.00
2018-07-12T15:55:39.565Z,18.90
2018-07-12T16:00:24.165Z,18.80
2018-07-12T16:05:08.539Z,18.60
2018-07-12T16:09:53.392Z,18.60
2018-07-12T16:14:38.404Z,18.50
2018-07-12T16:19:22.782Z,18.60
2018-07-12T16:24:07.179Z,18.80
2018-07-12T16:28:52.483Z,18.90
2018-07-12T16:33:36.890Z,18.90
2018-07-12T16:38:21.376Z,19.00
2018-07-12T16:43:05.871Z,19.10
2018-07-12T16:47:50.288Z,19.00
2018-07-12T16:52:34.752Z,19.10
2018-07-12T16:57:19.185Z,19.10
2018-07-12T17:02:03.611Z,19.20
2018-07-12T17:06:48.030Z,19.00
2018-07-12T17:11:33.523Z,18.90
2018-07-12T17:16:17.901Z,18.90
2018-07-12T17:21:02.507Z,18.80
2018-07-12T17:25:46.893Z,18.80
2018-07-12T17:30:31.320Z,18.70
2018-07-12T17:35:15.806Z,18.80
2018-07-12T17:40:00.249Z,18.80
2018-07-12T17:44:44.652Z,18.80
2018-07-12T17:49:29.529Z,19.00
2018-07-12T17:54:13.963Z,19.00
2018-07-12T17:58:58.316Z,18.90
2018-07-12T18:03:42.699Z,18.70
2018-07-12T18:08:27.178Z,18.50
2018-07-12T18:13:11.591Z,18.30
2018-07-12T18:17:55.981Z,18.10
2018-07-12T18:22:40.802Z,18.00
2018-07-12T18:27:25.196Z,17.90
2018-07-12T18:32:09.730Z,17.90
2018-07-12T18:36:54.070Z,17.80
2018-07-12T18:41:38.734Z,17.70
2018-07-12T18:46:23.264Z,17.70
2018-07-12T18:51:07.747Z,17.80
2018-07-12T18:55:52.081Z,17.70
2018-07-12T19:00:36.750Z,17.70
2018-07-12T19:05:21.342Z,17.60
2018-07-12T19:10:06.041Z,17.60
2018-07-12T19:14:50.654Z,17.60
2018-07-12T19:19:35.224Z,17.60
2018-07-12T19:24:19.763Z,17.60
2018-07-12T19:29:04.326Z,17.60
2018-07-12T19:33:49.159Z,17.60
2018-07-12T19:38:33.883Z,17.60
2018-07-12T19:43:18.375Z,17.50
2018-07-12T19:48:03.116Z,17.60
2018-07-12T19:52:47.709Z,17.50
2018-07-12T19:57:32.172Z,17.40
2018-07-12T20:02:16.629Z,17.30
2018-07-12T20:07:01.286Z,17.30
2018-07-12T20:11:45.790Z,17.30
2018-07-12T20:16:30.370Z,17.30
2018-07-12T20:21:15.060Z,17.30
2018-07-12T20:25:59.752Z,17.30
2018-07-12T20:30:44.425Z,17.30
2018-07-12T20:35:29.750Z,17.30
2018-07-12T20:40:15.368Z,17.30
2018-07-12T20:44:59.916Z,17.30
2018-07-12T20:49:44.736Z,17.40
2018-07-12T20:54:29.360Z,17.30
2018-07-12T20:59:13.995Z,17.30
2018-07-12T21:03:58.470Z,17.30
2018-07-12T21:08:43.169Z,17.30
2018-07-12T21:13:27.570Z,17.30
2018-07-12T21:18:12.106Z,17.30
2018-07-12T21:22:56.721Z,17.30
2018-07-12T21:27:41.185Z,17.40
2018-07-12T21:32:25.762Z,17.30
2018-07-12T21:37:10.400Z,17.30
2018-07-12T21:41:55.031Z,17.40
2018-07-12T21:46:39.540Z,17.40
2018-07-12T21:51:24.274Z,17.40
2018-07-12T21:56:08.875Z,17.30
2018-07-12T22:00:53.649Z,17.30
2018-07-12T22:05:38.366Z,17.30
2018-07-12T22:10:22.918Z,17.30
2018-07-12T22:15:07.391Z,17.30
2018-07-12T22:19:51.860Z,17.30
2018-07-12T22:24:36.231Z,17.30
2018-07-12T22:29:20.654Z,17.20
2018-07-12T22:34:04.975Z,17.00
2018-07-12T22:38:49.657Z,17.00
2018-07-12T22:43:34.005Z,16.90
2018-07-12T22:48:18.450Z,16.80
2018-07-12T22:53:02.666Z,16.80
2018-07-12T22:57:47.057Z,16.80
2018-07-12T23:02:31.418Z,16.80
2018-07-12T23:07:15.862Z,16.80
2018-07-12T23:12:00.247Z,16.80
2018-07-12T23:16:44.651Z,16.80
2018-07-12T23:26:12.913Z,16.80
2018-07-12T23:30:57.307Z,16.70
2018-07-12T23:35:41.720Z,16.60
2018-07-12T23:40:26.046Z,16.40
2018-07-12T23:45:10.490Z,16.30
2018-07-12T23:49:55.024Z,16.10
2018-07-12T23:54:39.497Z,16.10
2018-07-12T23:59:23.928Z,16.00
